• Join FlightAware (Why Join?)
  • Login
  • US Flag GB Flag 
03:27 EDT


 

Airport Tracker/Info


-or-


 

Live Flight TrackerFlight Track Log ✈ AVN30 ✈ 16-Jan-2014 ✈ NVVV / VLI - YMML / MEL

Flight Track Log - Related Links

Times and Time Zones

All times are in EST time to prevent confusion due to time zone crossing. See the AVN30 flight status page for this flight to view local times or setup timezone preferences in your user account.

Time Position Orientation Groundspeed Altitude Reporting Facility
EST Latitude Longitude Course Direction KTS MPH feet Rate Location/Type
01:43 -17.9246 168.0070 233° Southwest  Level FlightAware Approximate
01:44 -17.9996 167.9026 233° Southwest  Level FlightAware Approximate
01:45 -18.0745 167.7980 233° Southwest  Level FlightAware Approximate
01:46 -18.1494 167.6934 233° Southwest  Level FlightAware Approximate
01:47 -18.2242 167.5887 233° Southwest  Level FlightAware Approximate
01:48 -18.2990 167.4839 233° Southwest  Level FlightAware Approximate
01:49 -18.3737 167.3790 233° Southwest  Level FlightAware Approximate
01:50 -18.4483 167.2740 233° Southwest  Level FlightAware Approximate
01:51 -18.5229 167.1690 233° Southwest  Level FlightAware Approximate
01:52 -18.5974 167.0638 233° Southwest  Level FlightAware Approximate
01:53 -18.6719 166.9585 233° Southwest  Level FlightAware Approximate
01:54 -18.7463 166.8532 233° Southwest  Level FlightAware Approximate
01:55 -18.8207 166.7478 233° Southwest  Level FlightAware Approximate
01:56 -18.8949 166.6422 233° Southwest  Level FlightAware Approximate
01:57 -18.9692 166.5366 233° Southwest  Level FlightAware Approximate
01:58 -19.0433 166.4309 233° Southwest  Level FlightAware Approximate
01:59 -19.1175 166.3250 233° Southwest  Level FlightAware Approximate
02:00 -19.1915 166.2191 233° Southwest  Level FlightAware Approximate
02:01 -19.2655 166.1131 234° Southwest  Level FlightAware Approximate
02:02 -19.3394 166.0070 234° Southwest  Level FlightAware Approximate
02:03 -19.4133 165.9008 234° Southwest  Level FlightAware Approximate
02:04 -19.4871 165.7945 234° Southwest  Level FlightAware Approximate
02:05 -19.5608 165.6881 234° Southwest  Level FlightAware Approximate
02:06 -19.6345 165.5816 234° Southwest  Level FlightAware Approximate
02:07 -19.7081 165.4751 234° Southwest  Level FlightAware Approximate
02:08 -19.7817 165.3684 234° Southwest  Level FlightAware Approximate
02:09 -19.8552 165.2616 234° Southwest  Level FlightAware Approximate
02:10 -19.9286 165.1547 234° Southwest  Level FlightAware Approximate
02:11 -20.0020 165.0477 234° Southwest  Level FlightAware Approximate
02:12 -20.0753 164.9406 234° Southwest  Level FlightAware Approximate
02:13 -20.1485 164.8335 234° Southwest  Level FlightAware Approximate
02:14 -20.2217 164.7262 234° Southwest  Level FlightAware Approximate
02:15 -20.2948 164.6188 234° Southwest  Level FlightAware Approximate
02:16 -20.3678 164.5113 234° Southwest  Level FlightAware Approximate
02:17 -20.4408 164.4037 234° Southwest  Level FlightAware Approximate
02:18 -20.5137 164.2960 234° Southwest  Level FlightAware Approximate
02:19 -20.5866 164.1882 234° Southwest  Level FlightAware Approximate
02:20 -20.6593 164.0804 234° Southwest  Level FlightAware Approximate
02:21 -20.7321 163.9724 234° Southwest  Level FlightAware Approximate
02:22 -20.8047 163.8642 234° Southwest  Level FlightAware Approximate
02:23 -20.8773 163.7560 234° Southwest  Level FlightAware Approximate
02:24 -20.9498 163.6477 234° Southwest  Level FlightAware Approximate
02:25 -21.0222 163.5393 234° Southwest  Level FlightAware Approximate
02:26 -21.0946 163.4308 234° Southwest  Level FlightAware Approximate
02:27 -21.1669 163.3222 234° Southwest  Level FlightAware Approximate
02:27 -21.6634 163.8511 222° Southwest 32,000  Level Aus ATC (Calculated)
02:29 -21.8452 163.6779 216° Southwest  Level Estimated
02:30 -21.9299 163.5797 227° Southwest  Level FlightAware Approximate
02:30 -21.8953 163.5855 222° Southwest 32,000  Level Aus ATC (Calculated)
02:32 -22.0613 163.3945 227° Southwest  Level FlightAware Approximate
02:32 -22.0661 163.3890 222° Southwest 32,000  Level Aus ATC (Calculated)
02:33 -22.1511 163.2909 227° Southwest  Level FlightAware Approximate
02:33 -22.1860 163.2506 222° Southwest 32,000  Level Aus ATC (Calculated)
02:35 -22.3030 163.1152 227° Southwest  Level FlightAware Approximate
02:36 -22.3876 163.0172 227° Southwest  Level FlightAware Approximate
02:37 -22.4720 162.9191 227° Southwest  Level FlightAware Approximate
02:38 -22.5564 162.8208 227° Southwest  Level FlightAware Approximate
02:39 -22.6408 162.7224 227° Southwest  Level FlightAware Approximate
02:40 -22.7250 162.6239 227° Southwest  Level FlightAware Approximate
02:41 -22.8093 162.5253 227° Southwest  Level FlightAware Approximate
02:42 -22.8934 162.4266 227° Southwest  Level FlightAware Approximate
02:42 -22.9453 162.3656 221° Southwest 32,000  Level Aus ATC (Calculated)
02:44 -23.0826 162.2039 227° Southwest  Level FlightAware Approximate
02:45 -23.1665 162.1048 227° Southwest  Level FlightAware Approximate
02:46 -23.2504 162.0055 227° Southwest  Level FlightAware Approximate
02:47 -23.3342 161.9061 227° Southwest  Level FlightAware Approximate
02:48 -23.4180 161.8066 227° Southwest  Level FlightAware Approximate
02:49 -23.5017 161.7070 227° Southwest  Level FlightAware Approximate
02:50 -23.5854 161.6072 228° Southwest  Level FlightAware Approximate
02:51 -23.6689 161.5073 228° Southwest  Level FlightAware Approximate
02:52 -23.7525 161.4073 228° Southwest  Level FlightAware Approximate
02:53 -23.8359 161.3072 228° Southwest  Level FlightAware Approximate
02:54 -23.9193 161.2069 228° Southwest  Level FlightAware Approximate
02:55 -24.0026 161.1065 228° Southwest  Level FlightAware Approximate
02:56 -24.0859 161.0059 228° Southwest  Level FlightAware Approximate
02:57 -24.1691 160.9053 228° Southwest  Level FlightAware Approximate
02:58 -24.2522 160.8045 228° Southwest  Level FlightAware Approximate
02:59 -24.3352 160.7035 228° Southwest  Level FlightAware Approximate
03:00 -24.4182 160.6025 228° Southwest  Level FlightAware Approximate
03:01 -24.5012 160.5013 228° Southwest  Level FlightAware Approximate
03:02 -24.5840 160.3999 228° Southwest  Level FlightAware Approximate
03:03 -24.6838 160.3109 217° Southwest  Level FlightAware Approximate
03:04 -24.7823 160.2280 217° Southwest  Level FlightAware Approximate
03:04 -24.8126 160.2025 217° Southwest 32,000  Level Aus ATC (Calculated)
03:05 -24.9110 160.1194 217° Southwest  Level FlightAware Approximate
03:06 -25.0093 160.0363 217° Southwest  Level FlightAware Approximate
03:06 -25.0274 160.0210 217° Southwest 32,000  Level Aus ATC (Calculated)
03:08 -25.1840 159.8882 218° Southwest  Level FlightAware Approximate
03:09 -25.2818 159.8049 218° Southwest  Level FlightAware Approximate
03:10 -25.3795 159.7216 218° Southwest  Level FlightAware Approximate
03:11 -25.4772 159.6382 218° Southwest  Level FlightAware Approximate
03:12 -25.5749 159.5546 218° Southwest  Level FlightAware Approximate
03:13 -25.6725 159.4708 218° Southwest  Level FlightAware Approximate
03:14 -25.7701 159.3869 218° Southwest  Level FlightAware Approximate
03:15 -25.8676 159.3029 218° Southwest  Level FlightAware Approximate
03:16 -25.9651 159.2188 218° Southwest  Level FlightAware Approximate
03:17 -26.0625 159.1345 218° Southwest  Level FlightAware Approximate
03:18 -26.1599 159.0501 218° Southwest  Level FlightAware Approximate
03:19 -26.2572 158.9655 218° Southwest  Level FlightAware Approximate
03:20 -26.3545 158.8808 218° Southwest  Level FlightAware Approximate
03:21 -26.4518 158.7959 218° Southwest  Level FlightAware Approximate
03:22 -26.5489 158.7109 218° Southwest  Level FlightAware Approximate
03:23 -26.6461 158.6258 218° Southwest  Level FlightAware Approximate
03:24 -26.7432 158.5405 218° Southwest  Level FlightAware Approximate
03:25 -26.8402 158.4550 218° Southwest  Level FlightAware Approximate
03:26 -26.8893 158.4117 218° Southwest  Level FlightAware Approximate
03:26 -27.0288 158.2884 217° Southwest 32,000  Level Aus ATC (Calculated)
03:28 -27.1531 158.1781 218° Southwest  Level FlightAware Approximate
03:28 -27.1785 158.1556 207° Southwest 32,000  Level Aus ATC (Calculated)
03:28 -27.2533 158.0890 43° Northeast 32,000  Level Aus ATC (Calculated)
03:30 -27.3774 157.9783 218° Southwest  Level FlightAware Approximate
03:30 -27.4028 157.9557 40° Northeast 32,000  Level Aus ATC (Calculated)
03:31 -27.2059 158.1396 218° Southwest 458 527 32,000  Level Aus ATC (RADAR)
03:32 -27.2443 158.1037 220° Southwest 445 512 32,000  Level Aus ATC (RADAR)
03:32 -27.3003 158.0452 223° Southwest 428 493 32,000  Level Aus ATC (RADAR)
03:33 -27.3661 157.9891 217° Southwest 436 502 32,000  Level Aus ATC (RADAR)
03:34 -27.4248 157.9396 217° Southwest 443 510 32,000  Level Aus ATC (RADAR)
03:35 -27.5120 157.8610 219° Southwest 439 505 32,000  Level Aus ATC (RADAR)
03:35 -27.5355 157.8396 219° Southwest 438 504 32,000  Level Aus ATC (RADAR)
03:35 -27.5912 157.7892 219° Southwest 439 505 32,000 540 Level Aus ATC (RADAR)
03:36 -27.6880 157.7030 218° Southwest 439 505 32,900 960 Climbing Aus ATC (RADAR)
03:37 -27.7280 157.6670 219° Southwest 438 504 33,400 1,200 Climbing Aus ATC (RADAR)
03:37 -27.7838 157.6167 219° Southwest 437 503 34,100 420 Climbing Aus ATC (RADAR)
03:38 -27.8558 157.5522 218° Southwest 439 505 34,000 -120 Descending Aus ATC (RADAR)
03:39 -27.9102 157.5015 219° Southwest 436 502 34,000  Level Aus ATC (RADAR)
03:39 -27.9660 157.4513 218° Southwest 437 503 34,000  Level Aus ATC (RADAR)
03:40 -28.0299 157.3936 219° Southwest 439 505 34,000  Level Aus ATC (RADAR)
03:41 -28.0856 157.3431 219° Southwest 439 505 34,000  Level Aus ATC (RADAR)
03:42 -28.1811 157.2562 219° Southwest 440 506 34,000  Level Aus ATC (RADAR)
03:42 -28.2212 157.2201 218° Southwest 441 507 34,000  Level Aus ATC (RADAR)
03:43 -28.2841 157.1623 219° Southwest 438 504 34,000  Level Aus ATC (RADAR)
03:43 -28.3475 157.1045 219° Southwest 437 503 34,000  Level Aus ATC (RADAR)
03:44 -28.4011 157.0541 220° Southwest 432 497 34,000  Level Aus ATC (RADAR)
03:44 -28.4567 157.0035 219° Southwest 435 501 34,000  Level Aus ATC (RADAR)
03:45 -28.5189 156.9463 219° Southwest 433 498 34,000  Level Aus ATC (RADAR)
03:46 -28.5760 156.8955 218° Southwest 438 504 34,000  Level Aus ATC (RADAR)
03:47 -28.6839 156.7950 219° Southwest 433 498 34,000 60 Level Aus ATC (RADAR)
03:47 -28.7233 156.7592 219° Southwest 431 496 34,100 60 Climbing Aus ATC (RADAR)
03:48 -28.7784 156.7089 219° Southwest 435 501 34,100 -120 Level Aus ATC (RADAR)
03:49 -28.8483 156.6438 219° Southwest 433 498 34,000 -120 Descending Aus ATC (RADAR)
03:49 -28.8955 156.6005 219° Southwest 433 498 34,000  Level Aus ATC (RADAR)
03:50 -28.9582 156.5426 219° Southwest 435 501 34,000 60 Level Aus ATC (RADAR)
03:50 -29.0051 156.4992 219° Southwest 435 501 34,100 60 Climbing Aus ATC (RADAR)
03:51 -29.0596 156.4484 219° Southwest 434 499 34,100  Level Aus ATC (RADAR)
03:52 -29.1526 156.3615 219° Southwest 431 496 34,100  Level Aus ATC (RADAR)
03:52 -29.1910 156.3257 219° Southwest 432 497 34,100  Level Aus ATC (RADAR)
03:53 -29.2454 156.2749 219° Southwest 433 498 34,100  Level Aus ATC (RADAR)
03:54 -29.3151 156.2095 219° Southwest 432 497 34,100  Level Aus ATC (RADAR)
03:54 -29.3695 156.1584 219° Southwest 432 497 34,100  Level Aus ATC (RADAR)
03:55 -29.4483 156.0846 219° Southwest 439 505 34,100  Level Aus ATC (RADAR)
03:55 -29.4876 156.0476 219° Southwest 438 504 34,100  Level Aus ATC (RADAR)
03:56 -29.5418 155.9953 220° Southwest 438 504 34,100  Level Aus ATC (RADAR)
03:57 -29.6499 155.8879 221° Southwest 439 505 34,100  Level Aus ATC (RADAR)
03:58 -29.6889 155.8512 219° Southwest 436 502 34,100  Level Aus ATC (RADAR)
03:58 -29.7441 155.7999 219° Southwest 437 503 34,100  Level Aus ATC (RADAR)
03:59 -29.8150 155.7336 219° Southwest 438 504 34,100  Level Aus ATC (RADAR)
03:59 -29.8697 155.6819 219° Southwest 437 503 34,100  Level Aus ATC (RADAR)
04:00 -29.9396 155.6150 220° Southwest 436 502 34,100  Level Aus ATC (RADAR)
04:01 -29.9786 155.5780 219° Southwest 436 502 34,100  Level Aus ATC (RADAR)
04:02 -30.0644 155.4955 220° Southwest 438 504 34,100  Level Aus ATC (RADAR)
04:02 -30.1032 155.4582 220° Southwest 437 503 34,100  Level Aus ATC (RADAR)
04:02 -30.1421 155.4212 219° Southwest 437 503 34,100  Level Aus ATC (RADAR)
04:03 -30.1969 155.3685 220° Southwest 439 505 34,100  Level Aus ATC (RADAR)
04:04 -30.2740 155.2921 221° Southwest 439 505 34,100  Level Aus ATC (RADAR)
04:04 -30.3285 155.2390 220° Southwest 440 506 34,100  Level Aus ATC (RADAR)
04:05 -30.3920 155.1793 219° Southwest 441 507 34,100  Level Aus ATC (RADAR)
04:05 -30.4315 155.1418 219° Southwest 441 507 34,100  Level Aus ATC (RADAR)
04:06 -30.4948 155.0813 219° Southwest 443 510 34,100  Level Aus ATC (RADAR)
04:07 -30.5895 154.9900 220° Southwest 444 511 34,100  Level Aus ATC (RADAR)
04:08 -30.6286 154.9516 220° Southwest 444 511 34,100  Level Aus ATC (RADAR)
04:08 -30.6834 154.8977 220° Southwest 443 510 34,100  Level Aus ATC (RADAR)
04:09 -30.7536 154.8280 220° Southwest 444 511 34,100  Level Aus ATC (RADAR)
04:09 -30.8083 154.7740 220° Southwest 443 510 34,100  Level Aus ATC (RADAR)
04:10 -30.8631 154.7204 220° Southwest 442 509 34,100  Level Aus ATC (RADAR)
04:11 -30.9179 154.6668 220° Southwest 442 509 34,100  Level Aus ATC (RADAR)
04:11 -30.9729 154.6128 220° Southwest 443 510 34,100  Level Aus ATC (RADAR)
04:12 -31.0585 154.5286 220° Southwest 441 507 34,100  Level Aus ATC (RADAR)
04:13 -31.0976 154.4908 220° Southwest 440 506 34,100  Level Aus ATC (RADAR)
04:13 -31.1518 154.4379 220° Southwest 437 503 34,100  Level Aus ATC (RADAR)
04:14 -31.2290 154.3626 220° Southwest 435 501 34,100  Level Aus ATC (RADAR)
04:15 -31.2822 154.3089 221° Southwest 434 499 34,100  Level Aus ATC (RADAR)
04:15 -31.3498 154.2395 221° Southwest 433 498 34,100  Level Aus ATC (RADAR)
04:16 -31.3875 154.2005 221° Southwest 435 501 34,100  Level Aus ATC (RADAR)
04:16 -31.4399 154.1468 221° Southwest 431 496 34,100  Level Aus ATC (RADAR)
04:17 -31.5150 154.0706 221° Southwest 430 495 34,100  Level Aus ATC (RADAR)
04:18 -31.5529 154.0317 221° Southwest 434 499 34,100  Level Aus ATC (RADAR)
04:18 -31.6052 153.9784 221° Southwest 429 494 34,100  Level Aus ATC (RADAR)
04:19 -31.6729 153.9086 221° Southwest 433 498 34,100  Level Aus ATC (RADAR)
04:19 -31.7255 153.8546 221° Southwest 434 499 34,100  Level Aus ATC (RADAR)
04:20 -31.7779 153.8002 221° Southwest 433 498 34,100  Level Aus ATC (RADAR)
04:21 -31.8309 153.7455 221° Southwest 436 502 34,100  Level Aus ATC (RADAR)
04:21 -31.8837 153.6907 221° Southwest 435 501 34,100  Level Aus ATC (RADAR)
04:22 -31.9671 153.6046 221° Southwest 438 504 34,100  Level Aus ATC (RADAR)
04:23 -32.0047 153.5649 222° Southwest 437 503 34,100  Level Aus ATC (RADAR)
04:23 -32.0581 153.5097 221° Southwest 438 504 34,100  Level Aus ATC (RADAR)
04:24 -32.1258 153.4387 222° Southwest 438 504 34,100  Level Aus ATC (RADAR)
04:24 -32.1784 153.3832 222° Southwest 437 503 34,100  Level Aus ATC (RADAR)
04:25 -32.2536 153.3041 222° Southwest 435 501 34,100  Level Aus ATC (RADAR)
04:26 -32.2910 153.2647 222° Southwest 434 499 34,100  Level Aus ATC (RADAR)
04:26 -32.3455 153.2065 222° Southwest 424 488 34,100  Level Aus ATC (RADAR)
04:27 -32.4417 153.1032 222° Southwest 423 487 34,100  Level Aus ATC (RADAR)
04:28 -32.4843 153.0581 222° Southwest 436 502 34,100  Level Aus ATC (RADAR)
04:28 -32.5364 153.0033 222° Southwest 433 498 34,100  Level Aus ATC (RADAR)
04:29 -32.6060 152.9299 222° Southwest 424 488 34,100  Level Aus ATC (RADAR)
04:30 -32.6582 152.8745 222° Southwest 424 488 34,100  Level Aus ATC (RADAR)
04:31 -32.7329 152.7951 222° Southwest 426 490 34,100  Level Aus ATC (RADAR)
04:31 -32.7552 152.7710 222° Southwest 425 489 34,100  Level Aus ATC (RADAR)
04:31 -32.8076 152.7155 222° Southwest 426 490 34,100  Level Aus ATC (RADAR)
04:32 -32.8971 152.6193 222° Southwest 427 491 34,100  Level Aus ATC (RADAR)
04:33 -32.9345 152.5786 222° Southwest 429 494 34,100  Level Aus ATC (RADAR)
04:33 -32.9870 152.5224 222° Southwest 429 494 34,100  Level Aus ATC (RADAR)
04:34 -33.0451 152.4614 221° Southwest 439 505 34,100  Level Aus ATC (RADAR)
04:35 -33.0976 152.4044 222° Southwest 439 505 34,100  Level Aus ATC (RADAR)
04:35 -33.1497 152.3470 223° Southwest 439 505 34,100  Level Aus ATC (RADAR)
04:36 -33.1970 152.2947 223° Southwest 430 495 34,100  Level Aus ATC (RADAR)
04:36 -33.2500 152.2381 222° Southwest 431 496 34,100  Level Aus ATC (RADAR)
04:37 -33.3396 152.1407 222° Southwest 428 493 34,100  Level Aus ATC (RADAR)
04:38 -33.3768 152.1006 222° Southwest 428 493 34,100  Level Aus ATC (RADAR)
04:38 -33.4287 152.0438 222° Southwest 426 490 34,100  Level Aus ATC (RADAR)
04:39 -33.4953 151.9708 222° Southwest 427 491 34,100  Level Aus ATC (RADAR)
04:40 -33.5546 151.9058 222° Southwest 428 493 34,100  Level Aus ATC (RADAR)
04:40 -33.5991 151.8569 223° Southwest 428 493 34,100  Level Aus ATC (RADAR)
04:41 -33.6583 151.7917 223° Southwest 428 493 34,100  Level Aus ATC (RADAR)
04:42 -33.7102 151.7349 222° Southwest 428 493 34,100  Level Aus ATC (RADAR)
04:42 -33.7972 151.6401 222° Southwest 436 502 34,100  Level Aus ATC (RADAR)
04:43 -33.8366 151.5959 223° Southwest 429 494 34,100  Level Aus ATC (RADAR)
04:44 -33.8886 151.5381 223° Southwest 430 495 34,100  Level Aus ATC (RADAR)
04:44 -33.9558 151.4641 222° Southwest 431 496 34,100  Level Aus ATC (RADAR)
04:45 -34.0075 151.4075 222° Southwest 428 493 34,100  Level Aus ATC (RADAR)
04:46 -34.0746 151.3328 223° Southwest 430 495 34,100  Level Aus ATC (RADAR)
04:46 -34.1163 151.2868 222° Southwest 437 503 34,100  Level Aus ATC (RADAR)
04:47 -34.1676 151.2292 223° Southwest 438 504 34,100  Level Aus ATC (RADAR)
04:47 -34.2260 151.1637 223° Southwest 432 497 34,100  Level Aus ATC (RADAR)
04:48 -34.2656 151.1199 222° Southwest 425 489 34,100  Level Aus ATC (RADAR)
04:48 -34.3137 151.0657 223° Southwest 436 502 34,100  Level Aus ATC (RADAR)
04:49 -34.3791 150.9919 223° Southwest 438 504 34,100  Level Aus ATC (RADAR)
04:50 -34.4296 150.9347 223° Southwest 433 498 34,100  Level Aus ATC (RADAR)
04:50 -34.4803 150.8771 223° Southwest 431 496 34,100  Level Aus ATC (RADAR)
04:51 -34.5273 150.8250 222° Southwest 426 490 34,100  Level Aus ATC (RADAR)
04:51 -34.5748 150.7626 227° Southwest 425 489 34,100  Level Aus ATC (RADAR)
04:52 -34.6277 150.6733 234° Southwest 429 494 34,100  Level Aus ATC (RADAR)
04:53 -34.6696 150.6045 234° Southwest 428 493 34,100  Level Aus ATC (RADAR)
04:53 -34.7146 150.5296 234° Southwest 437 503 34,100  Level Aus ATC (RADAR)
04:54 -34.7679 150.4408 234° Southwest 436 502 34,100  Level Aus ATC (RADAR)
04:54 -34.7979 150.3905 234° Southwest 442 509 34,100  Level Aus ATC (RADAR)
04:55 -34.8396 150.3210 234° Southwest 444 511 34,100  Level Aus ATC (RADAR)
04:56 -34.8891 150.2374 234° Southwest 432 497 34,100  Level Aus ATC (RADAR)
04:56 -34.9308 150.1670 234° Southwest 434 499 34,100  Level Aus ATC (RADAR)
04:57 -35.0023 150.0454 234° Southwest 436 502 34,100  Level Aus ATC (RADAR)
04:58 -35.0322 149.9945 234° Southwest 437 503 34,100  Level Aus ATC (RADAR)
04:58 -35.0620 149.9434 234° Southwest 438 504 34,100  Level Aus ATC (RADAR)
04:59 -35.1040 149.8720 234° Southwest 438 504 34,100  Level Aus ATC (RADAR)
04:59 -35.1580 149.7806 234° Southwest 438 504 34,100  Level Aus ATC (RADAR)
05:00 -35.1999 149.7095 234° Southwest 437 503 34,100  Level Aus ATC (RADAR)
05:01 -35.2399 149.6428 234° Southwest 441 507 34,100  Level Aus ATC (RADAR)
05:01 -35.2768 149.5774 235° Southwest 435 501 34,100  Level Aus ATC (RADAR)
05:02 -35.3186 149.5060 234° Southwest 437 503 34,100  Level Aus ATC (RADAR)
05:03 -35.3845 149.3951 234° Southwest 436 502 34,100  Level Aus ATC (RADAR)
05:03 -35.4145 149.3440 234° Southwest 438 504 34,100  Level Aus ATC (RADAR)
05:04 -35.4566 149.2721 234° Southwest 441 507 34,100  Level Aus ATC (RADAR)
05:04 -35.5099 149.1794 235° Southwest 439 505 34,100  Level Aus ATC (RADAR)
05:05 -35.5514 149.1072 235° Southwest 439 505 34,100  Level Aus ATC (RADAR)
05:06 -35.5909 149.0368 235° Southwest 447 514 34,100  Level Aus ATC (RADAR)
05:06 -35.6293 148.9729 233° Southwest 441 507 34,100  Level Aus ATC (RADAR)
05:07 -35.6685 148.9022 236° Southwest 447 514 34,100  Level Aus ATC (RADAR)
05:08 -35.7373 148.7867 234° Southwest 443 510 34,100  Level Aus ATC (RADAR)
05:08 -35.7670 148.7344 235° Southwest 442 509 34,100  Level Aus ATC (RADAR)
05:09 -35.8091 148.6616 234° Southwest 443 510 34,100  Level Aus ATC (RADAR)
05:09 -35.8600 148.5692 236° Southwest 449 517 34,100  Level Aus ATC (RADAR)
05:10 -35.9014 148.4951 235° Southwest 451 519 34,100  Level Aus ATC (RADAR)
05:10 -35.9433 148.4219 235° Southwest 449 517 34,100 60 Level Aus ATC (RADAR)
05:11 -35.9819 148.3566 234° Southwest 446 513 34,200  Climbing Aus ATC (RADAR)
05:12 -36.0216 148.2851 236° Southwest 453 521 34,100  Descending Aus ATC (RADAR)
05:12 -36.0718 148.1985 234° Southwest 445 512 34,200 -120 Climbing Aus ATC (RADAR)
05:13 -36.1123 148.1237 236° Southwest 446 513 34,000 -180 Descending Aus ATC (RADAR)
05:13 -36.1543 148.0499 235° Southwest 447 514 34,000 120 Level Aus ATC (RADAR)
05:14 -36.2071 147.9545 235° Southwest 446 513 34,200 60 Climbing Aus ATC (RADAR)
05:15 -36.2346 147.9043 236° Southwest 451 519 34,100 -120 Descending Aus ATC (RADAR)
05:15 -36.2768 147.8307 235° Southwest 451 519 34,100 -180 Level Aus ATC (RADAR)
05:16 -36.3251 147.7416 236° Southwest 447 514 33,900  Descending Aus ATC (RADAR)
05:16 -36.3642 147.6700 236° Southwest 451 519 34,100 120 Climbing Aus ATC (RADAR)
05:17 -36.4034 147.5924 238° Southwest 457 526 34,100 -180 Level Aus ATC (RADAR)
05:18 -36.4541 147.5067 234° Southwest 447 514 33,900 -120 Descending Aus ATC (RADAR)
05:18 -36.4853 147.4542 234° Southwest 449 517 34,000  Climbing Aus ATC (RADAR)
05:19 -36.5260 147.3793 236° Southwest 448 516 33,900 -120 Descending Aus ATC (RADAR)
05:19 -36.5721 147.2933 236° Southwest 446 513 33,900 60 Level Aus ATC (RADAR)
05:20 -36.6126 147.2181 236° Southwest 446 513 34,000  Climbing Aus ATC (RADAR)
05:20 -36.6476 147.1537 236° Southwest 447 514 33,900 -120 Descending Aus ATC (RADAR)
05:21 -36.6940 147.0682 236° Southwest 445 512 33,900  Level Aus ATC (RADAR)
05:22 -36.7348 146.9934 236° Southwest 447 514 33,900 60 Level Aus ATC (RADAR)
05:23 -36.8186 146.9014 221° Southwest 431 496 34,000  Climbing Aus ATC (RADAR)
05:23 -36.8548 146.8743 211° Southwest 446 513 33,900  Descending Aus ATC (RADAR)
05:23 -36.8985 146.8395 212° Southwest 448 516 34,000  Climbing Aus ATC (RADAR)
05:24 -36.9591 146.7899 213° Southwest 448 516 33,900 -240 Descending Aus ATC (RADAR)
05:25 -37.0373 146.7303 211° Southwest 437 503 33,700 -840 Descending Aus ATC (RADAR)
05:25 -37.0940 146.7139 193° South 413 475 32,900 -1,500 Descending Aus ATC (RADAR)
05:26 -37.1594 146.6952 193° South 414 476 32,100 -1,500 Descending Aus ATC (RADAR)
05:26 -37.2210 146.6751 195° South 401 461 31,200 -1,560 Descending Aus ATC (RADAR)
05:27 -37.2653 146.6141 228° Southwest 429 494 30,300 -1,920 Descending Aus ATC (RADAR)
05:28 -37.2810 146.4944 261° West 378 435 28,400 -2,040 Descending Aus ATC (RADAR)
05:28 -37.2904 146.4421 257° West 371 427 27,600 -1,920 Descending Aus ATC (RADAR)
05:29 -37.3057 146.3698 255° West 366 421 26,500 -2,040 Descending Aus ATC (RADAR)
05:30 -37.3255 146.2780 255° West 362 417 24,900 -2,040 Descending Aus ATC (RADAR)
05:30 -37.3395 146.2080 256° West 356 410 23,800 -1,800 Descending Aus ATC (RADAR)
05:31 -37.3530 146.1377 256° West 355 409 22,800 -1,860 Descending Aus ATC (RADAR)
05:31 -37.3653 146.0778 256° West 354 407 21,800 -1,980 Descending Aus ATC (RADAR)
05:32 -37.3787 146.0088 256° West 349 402 20,700 -1,740 Descending Aus ATC (RADAR)
05:33 -37.4012 145.8949 256° West 333 383 19,100 -1,740 Descending Aus ATC (RADAR)
05:33 -37.4116 145.8388 257° West 331 381 18,200 -1,860 Descending Aus ATC (RADAR)
05:34 -37.4192 145.8023 255° West 326 375 17,600 -1,800 Descending Aus ATC (RADAR)
05:34 -37.4318 145.7387 256° West 323 372 16,600 -1,740 Descending Aus ATC (RADAR)
05:35 -37.4477 145.6582 256° West 316 364 15,300 -1,680 Descending Aus ATC (RADAR)
05:36 -37.4520 145.5955 265° West 310 357 14,400 -1,740 Descending Aus ATC (RADAR)
05:36 -37.4502 145.5345 272° West 299 344 13,300 -1,680 Descending Aus ATC (RADAR)
05:37 -37.4511 145.4844 269° West 288 331 12,600 -1,500 Descending Aus ATC (RADAR)
05:37 -37.4505 145.4265 271° West 284 327 11,700 -1,560 Descending Aus ATC (RADAR)
05:38 -37.4468 145.3692 275° West 281 323 10,800 -1,560 Descending Aus ATC (RADAR)
05:38 -37.4469 145.3123 270° West 278 320 9,900 -1,500 Descending Aus ATC (RADAR)
05:39 -37.4468 145.2639 270° West 276 318 9,200 -1,500 Descending Aus ATC (RADAR)
05:39 -37.4459 145.2074 271° West 277 319 8,300 -1,500 Descending Aus ATC (RADAR)
05:40 -37.4456 145.1583 271° West 280 322 7,600 -1,500 Descending Aus ATC (RADAR)
05:41 -37.4447 145.1011 271° West 280 322 6,700 -1,560 Descending Aus ATC (RADAR)
05:41 -37.4433 145.0436 272° West 280 322 5,800 -1,140 Descending Aus ATC (RADAR)
05:42 -37.4423 144.9817 271° West 262 302 5,300 -960 Descending Aus ATC (RADAR)
05:42 -37.4428 144.9293 269° West 256 295 4,600 -1,020 Descending Aus ATC (RADAR)
05:43 -37.4524 144.8663 259° West 242 278 4,000 -1,140 Descending Aus ATC (RADAR)
05:43 -37.4566 144.8377 260° West 247 284 3,400 -960 Descending Aus ATC (RADAR)
05:44 -37.4819 144.7979 231° Southwest 234 269 3,100 -360 Descending Aus ATC (RADAR)
05:45 -37.5233 144.8108 166° South 199 229 2,900 -720 Descending Aus ATC (RADAR)
05:45 -37.5544 144.8164 172° South 192 221 2,200 -1,020 Descending Aus ATC (RADAR)
05:46 -37.5807 144.8212 172° South 190 219 1,800 -840 Descending Aus ATC (RADAR)
05:46 -37.6083 144.8265 171° South 171 197 1,300 -900 Descending Aus ATC (RADAR)
05:47 -37.6322 144.8309 172° South 147 169 800 -780 Descending Aus ATC (RADAR)
05:48 -37.6617 144.8364 172° South 139 160 300 -600 Descending Aus ATC (RADAR)
05:48 -37.6647 144.8364 180° South 135 155 300  Level Aus ATC (RADAR)